Time;durP1;ratioP1;P1;durP2;ratioP2;P2;SDS_P1;SDS_P2;PMS_P1;PMS_P2;Temp;Humidity;BMP_temperature;BMP_pressure;BME280_temperature;BME280_humidity;BME280_pressure;Samples;Min_cycle;Max_cycle;Signal;HPM_P1;HPM_P2
2022/09/29 00:01:38;;;;;;;1.13;0.68;;;19.90;56.90;;;;;;5036752;28;20378;-63
2022/09/29 00:04:04;;;;;;;1.20;0.70;;;19.80;56.90;;;;;;5036558;28;20036;-63
2022/09/29 00:06:30;;;;;;;0.63;0.60;;;19.80;56.90;;;;;;5037234;28;20029;-63
2022/09/29 00:08:57;;;;;;;0.85;0.60;;;19.80;56.80;;;;;;5038695;28;20033;-63
2022/09/29 00:11:22;;;;;;;0.73;0.65;;;19.80;56.80;;;;;;5034914;28;20108;-64
2022/09/29 00:13:49;;;;;;;0.63;0.47;;;19.80;56.80;;;;;;5039215;28;20175;-63
2022/09/29 00:16:15;;;;;;;1.13;0.73;;;19.80;56.80;;;;;;5039595;28;20052;-63
2022/09/29 00:18:40;;;;;;;0.68;0.60;;;19.80;56.80;;;;;;5036006;28;20480;-63
2022/09/29 00:21:09;;;;;;;1.02;0.60;;;19.80;56.80;;;;;;5035952;28;20025;-63
2022/09/29 00:23:36;;;;;;;1.23;0.68;;;19.80;56.80;;;;;;5034314;28;20022;-63
2022/09/29 00:26:06;;;;;;;0.65;0.55;;;19.80;56.80;;;;;;5035975;28;20495;-63
2022/09/29 00:28:33;;;;;;;0.82;0.57;;;19.80;56.80;;;;;;5040158;28;20025;-62
2022/09/29 00:31:00;;;;;;;0.75;0.50;;;19.80;56.80;;;;;;5034140;28;20029;-63
2022/09/29 00:33:34;;;;;;;1.63;0.70;;;19.80;56.80;;;;;;5041185;28;20017;-63
2022/09/29 00:36:03;;;;;;;0.73;0.50;;;19.80;56.80;;;;;;5037716;28;20045;-63
2022/09/29 00:38:29;;;;;;;1.58;0.70;;;19.80;56.80;;;;;;5038054;28;20063;-63
2022/09/29 00:40:55;;;;;;;0.93;0.60;;;19.80;56.80;;;;;;5037774;28;20477;-63
2022/09/29 00:43:51;;;;;;;1.40;0.77;;;19.80;56.80;;;;;;5039113;28;20025;-63
2022/09/29 00:46:32;;;;;;;1.02;0.70;;;19.80;56.90;;;;;;5033327;28;20139;-63
2022/09/29 00:49:04;;;;;;;0.65;0.50;;;19.80;56.80;;;;;;5031244;28;20544;-64
2022/09/29 00:51:33;;;;;;;1.00;0.70;;;19.80;56.90;;;;;;5034973;28;20115;-63
2022/09/29 00:54:00;;;;;;;0.80;0.60;;;19.80;56.80;;;;;;5035648;28;20413;-63
2022/09/29 00:56:26;;;;;;;0.63;0.60;;;19.80;56.80;;;;;;5038978;28;20485;-63
2022/09/29 00:59:00;;;;;;;1.38;0.68;;;19.70;56.80;;;;;;5054108;28;20784;-63
2022/09/29 01:01:30;;;;;;;0.95;0.60;;;19.80;56.80;;;;;;5039051;28;20107;-63
2022/09/29 01:04:03;;;;;;;1.02;0.70;;;19.80;56.80;;;;;;5036557;28;20071;-63
2022/09/29 01:06:43;;;;;;;0.93;0.60;;;19.80;56.80;;;;;;5035779;28;20064;-63
2022/09/29 01:09:10;;;;;;;;;;;19.70;56.80;;;;;;5035044;28;20483;-63
2022/09/29 01:11:36;;;;;;;0.95;0.60;;;19.70;56.80;;;;;;5039849;28;19955;-63
2022/09/29 01:14:05;;;;;;;0.63;0.50;;;19.70;56.70;;;;;;5034941;28;20445;-63
2022/09/29 01:16:33;;;;;;;1.05;0.70;;;19.70;56.70;;;;;;5036126;28;20633;-63
2022/09/29 01:19:01;;;;;;;1.10;0.60;;;19.70;56.80;;;;;;5038867;28;20033;-63
2022/09/29 01:21:35;;;;;;;0.70;0.60;;;19.70;56.70;;;;;;5036599;28;20125;-63
2022/09/29 01:24:10;;;;;;;0.60;0.60;;;19.70;56.80;;;;;;5034867;28;20026;-63
2022/09/29 01:26:54;;;;;;;0.88;0.57;;;19.70;56.80;;;;;;5041187;28;20499;-63
2022/09/29 01:29:20;;;;;;;0.90;0.60;;;19.70;56.80;;;;;;5038393;28;20481;-63
2022/09/29 01:32:23;;;;;;;0.80;0.50;;;19.70;56.70;;;;;;5035540;28;20084;-63
2022/09/29 01:35:13;;;;;;;1.77;0.60;;;19.70;56.80;;;;;;5055313;28;20034;-63
2022/09/29 01:37:53;;;;;;;0.85;0.60;;;19.70;56.80;;;;;;5038549;28;20434;-63
2022/09/29 01:41:01;;;;;;;0.63;0.63;;;19.70;56.80;;;;;;5038111;28;20029;-63
2022/09/29 01:43:34;;;;;;;0.80;0.60;;;19.70;56.80;;;;;;5032306;28;20116;-63
2022/09/29 01:46:36;;;;;;;0.98;0.60;;;19.70;56.80;;;;;;5041627;28;20370;-63
2022/09/29 01:49:03;;;;;;;0.98;0.60;;;19.70;56.80;;;;;;5032093;28;20124;-63
2022/09/29 01:51:42;;;;;;;0.90;0.63;;;19.60;56.70;;;;;;5040870;28;20437;-63
2022/09/29 01:54:14;;;;;;;1.00;0.52;;;19.60;56.70;;;;;;5041902;28;20033;-63
2022/09/29 01:56:49;;;;;;;0.70;0.50;;;19.60;56.70;;;;;;5041899;28;20028;-63
2022/09/29 01:59:27;;;;;;;0.77;0.60;;;19.70;56.80;;;;;;5039796;28;20076;-63
2022/09/29 02:01:58;;;;;;;0.60;0.60;;;19.60;56.70;;;;;;5038294;28;20033;-63
2022/09/29 02:04:40;;;;;;;0.50;0.40;;;19.70;56.80;;;;;;5036141;28;20034;-63
2022/09/29 02:07:12;;;;;;;0.60;0.60;;;19.60;56.70;;;;;;5033566;28;20111;-63
2022/09/29 02:09:41;;;;;;;1.33;0.60;;;19.60;56.70;;;;;;5036440;28;20115;-63
2022/09/29 02:12:08;;;;;;;0.57;0.50;;;19.60;56.70;;;;;;5037709;28;20104;-63
2022/09/29 02:14:41;;;;;;;0.70;0.50;;;19.60;56.80;;;;;;5038038;28;20029;-63
2022/09/29 02:17:18;;;;;;;0.60;0.50;;;19.60;56.70;;;;;;5030636;28;20052;-63
2022/09/29 02:19:45;;;;;;;0.88;0.60;;;19.60;56.70;;;;;;5035841;28;20338;-63
2022/09/29 02:22:11;;;;;;;0.60;0.50;;;19.60;56.70;;;;;;5041883;28;20057;-63
2022/09/29 02:24:37;;;;;;;0.75;0.60;;;19.60;56.70;;;;;;5037201;28;20115;-63
2022/09/29 02:27:03;;;;;;;0.63;0.60;;;19.60;56.70;;;;;;5044116;28;20159;-63
2022/09/29 02:29:31;;;;;;;0.40;0.40;;;19.60;56.70;;;;;;5040794;28;20824;-63
2022/09/29 02:32:00;;;;;;;1.05;0.60;;;19.60;56.70;;;;;;5041471;28;20489;-63
2022/09/29 02:34:26;;;;;;;0.98;0.63;;;19.60;56.70;;;;;;5040773;28;20459;-63
2022/09/29 02:37:11;;;;;;;0.65;0.60;;;19.60;57.20;;;;;;5038243;28;20036;-63
2022/09/29 02:39:46;;;;;;;0.65;0.60;;;19.60;56.70;;;;;;5038707;28;20091;-63
2022/09/29 02:42:28;;;;;;;0.63;0.60;;;19.60;56.70;;;;;;5038116;28;20020;-63
2022/09/29 02:45:11;;;;;;;0.60;0.60;;;19.60;56.70;;;;;;5039414;28;20028;-63
2022/09/29 02:48:15;;;;;;;0.75;0.60;;;19.60;56.70;;;;;;5038073;28;20025;-63
2022/09/29 02:51:04;;;;;;;0.60;0.60;;;19.60;56.70;;;;;;5051813;28;20108;-63
2022/09/29 02:53:57;;;;;;;0.98;0.70;;;19.60;56.70;;;;;;5033461;28;20053;-63
2022/09/29 02:56:30;;;;;;;0.70;0.55;;;19.50;56.70;;;;;;5034360;28;20036;-63
2022/09/29 02:59:05;;;;;;;0.63;0.50;;;19.50;56.70;;;;;;5033194;28;20034;-63
2022/09/29 03:01:32;;;;;;;0.68;0.50;;;19.60;56.70;;;;;;5035964;28;20025;-63
2022/09/29 03:03:58;;;;;;;0.52;0.50;;;19.60;56.70;;;;;;5038104;28;20021;-63
2022/09/29 03:06:23;;;;;;;0.60;0.50;;;19.60;56.70;;;;;;5036793;28;20159;-63
2022/09/29 03:08:49;;;;;;;0.50;0.50;;;19.60;56.70;;;;;;5033890;28;20033;-63
2022/09/29 03:11:15;;;;;;;0.75;0.60;;;19.50;56.60;;;;;;5039709;28;20035;-63
2022/09/29 03:13:40;;;;;;;0.77;0.60;;;19.60;56.70;;;;;;5042327;28;20029;-63
2022/09/29 03:16:06;;;;;;;1.40;0.70;;;19.60;56.70;;;;;;5038130;28;20100;-63
2022/09/29 03:18:31;;;;;;;1.13;0.60;;;19.50;56.60;;;;;;5039450;28;20028;-63
2022/09/29 03:20:58;;;;;;;0.63;0.50;;;19.60;56.70;;;;;;5036964;28;20032;-63
2022/09/29 03:23:23;;;;;;;0.57;0.57;;;19.50;56.60;;;;;;5038964;28;20389;-63
2022/09/29 03:25:49;;;;;;;0.50;0.50;;;19.50;56.60;;;;;;5038493;28;20017;-63
2022/09/29 03:28:17;;;;;;;0.60;0.50;;;19.50;56.60;;;;;;5037089;28;20029;-63
2022/09/29 03:30:44;;;;;;;0.50;0.50;;;19.50;56.60;;;;;;5035473;28;20581;-64
2022/09/29 03:33:10;;;;;;;0.65;0.50;;;19.50;56.60;;;;;;5036767;28;20021;-63
2022/09/29 03:35:36;;;;;;;0.63;0.57;;;19.50;56.60;;;;;;5032949;28;20041;-63
2022/09/29 03:38:02;;;;;;;0.60;0.50;;;19.50;56.60;;;;;;5031453;28;20052;-63
2022/09/29 03:40:28;;;;;;;0.60;0.60;;;19.50;56.60;;;;;;5040709;28;20071;-63
2022/09/29 03:42:54;;;;;;;1.02;0.60;;;19.50;56.60;;;;;;5034180;28;20488;-63
2022/09/29 03:45:19;;;;;;;0.70;0.60;;;19.50;56.60;;;;;;5032429;28;20032;-64
2022/09/29 03:47:45;;;;;;;0.65;0.60;;;19.50;56.60;;;;;;5021890;28;20079;-63
2022/09/29 03:50:11;;;;;;;0.50;0.50;;;19.50;56.60;;;;;;5036111;28;20026;-63
2022/09/29 03:52:37;;;;;;;0.45;0.45;;;19.50;56.60;;;;;;5041219;28;20543;-63
2022/09/29 03:55:02;;;;;;;0.50;0.50;;;19.50;56.60;;;;;;5039110;28;20034;-63
2022/09/29 03:57:28;;;;;;;0.60;0.50;;;19.50;56.60;;;;;;5038996;28;20389;-63
2022/09/29 03:59:54;;;;;;;0.68;0.47;;;19.50;56.60;;;;;;5039544;28;20124;-63
2022/09/29 04:02:19;;;;;;;0.73;0.50;;;19.50;56.60;;;;;;5038264;28;20037;-63
2022/09/29 04:04:45;;;;;;;0.70;0.60;;;19.50;56.60;;;;;;5038467;28;20465;-63
2022/09/29 04:07:11;;;;;;;0.73;0.50;;;19.50;56.60;;;;;;5054372;28;20034;-63
2022/09/29 04:09:37;;;;;;;1.40;0.60;;;19.50;56.60;;;;;;5034346;28;20038;-63
2022/09/29 04:12:03;;;;;;;0.50;0.50;;;19.50;56.60;;;;;;5036469;28;20025;-63
2022/09/29 04:14:29;;;;;;;0.50;0.50;;;19.50;56.60;;;;;;5032633;28;20493;-63
2022/09/29 04:16:54;;;;;;;1.00;0.50;;;19.40;56.50;;;;;;5038789;28;20053;-63
2022/09/29 04:19:20;;;;;;;0.90;0.50;;;19.40;56.60;;;;;;5037917;28;20083;-63
2022/09/29 04:21:45;;;;;;;0.55;0.50;;;19.50;56.60;;;;;;5032789;28;20104;-63
2022/09/29 04:24:11;;;;;;;0.40;0.40;;;19.50;56.70;;;;;;5031050;28;20556;-64
2022/09/29 04:26:38;;;;;;;1.10;0.70;;;19.40;56.60;;;;;;5036712;28;20460;-63
2022/09/29 04:29:04;;;;;;;1.20;0.70;;;19.50;56.70;;;;;;5035247;28;20022;-63
2022/09/29 04:31:30;;;;;;;0.80;0.60;;;19.40;56.60;;;;;;5038552;28;20038;-63
2022/09/29 04:33:55;;;;;;;0.60;0.60;;;19.40;56.70;;;;;;5038617;28;20489;-63
2022/09/29 04:36:21;;;;;;;0.85;0.65;;;19.40;56.70;;;;;;5036640;28;20066;-63
2022/09/29 04:38:49;;;;;;;0.57;0.50;;;19.40;56.70;;;;;;5037079;28;20444;-63
2022/09/29 04:41:14;;;;;;;1.17;0.57;;;19.40;56.70;;;;;;5031616;28;20025;-63
2022/09/29 04:43:40;;;;;;;0.80;0.63;;;19.40;56.70;;;;;;5039795;28;20021;-63
2022/09/29 04:46:07;;;;;;;0.68;0.50;;;19.40;56.70;;;;;;5040457;28;20052;-63
2022/09/29 04:48:34;;;;;;;0.90;0.52;;;19.40;56.70;;;;;;5036718;28;20036;-63
2022/09/29 04:50:59;;;;;;;0.77;0.50;;;19.40;56.80;;;;;;5037874;28;20018;-64
2022/09/29 04:53:25;;;;;;;0.93;0.60;;;19.40;56.70;;;;;;5036856;28;20036;-64
2022/09/29 04:55:51;;;;;;;0.90;0.57;;;19.40;56.80;;;;;;5038118;28;20041;-64
2022/09/29 04:58:16;;;;;;;0.60;0.60;;;19.40;56.80;;;;;;5034419;28;20098;-64
2022/09/29 05:00:42;;;;;;;0.90;0.60;;;19.40;56.80;;;;;;5037635;28;20039;-63
2022/09/29 05:03:08;;;;;;;0.90;0.60;;;19.40;56.80;;;;;;5038587;28;20108;-63
2022/09/29 05:05:33;;;;;;;0.70;0.60;;;19.40;56.80;;;;;;5036290;28;20026;-63
2022/09/29 05:08:03;;;;;;;0.50;0.50;;;19.40;56.80;;;;;;5051575;28;20091;-64
2022/09/29 05:10:29;;;;;;;0.68;0.65;;;19.40;56.90;;;;;;5041616;28;20032;-63
2022/09/29 05:12:54;;;;;;;0.85;0.60;;;19.40;56.90;;;;;;5043541;28;20396;-63
2022/09/29 05:15:20;;;;;;;0.93;0.60;;;19.40;56.90;;;;;;5039751;28;20032;-63
2022/09/29 05:17:45;;;;;;;0.95;0.60;;;19.40;56.90;;;;;;5039669;28;20115;-63
2022/09/29 05:20:11;;;;;;;1.38;0.63;;;19.40;56.90;;;;;;5037251;28;20025;-63
2022/09/29 05:22:37;;;;;;;0.75;0.50;;;19.40;57.00;;;;;;5042037;28;20083;-63
2022/09/29 05:25:04;;;;;;;1.55;0.70;;;19.30;56.90;;;;;;5037335;28;20021;-63
2022/09/29 05:27:29;;;;;;;1.60;0.70;;;19.40;57.00;;;;;;5038284;28;20056;-63
2022/09/29 05:29:55;;;;;;;1.13;0.60;;;19.40;57.00;;;;;;5042516;28;20068;-63
2022/09/29 05:32:21;;;;;;;1.38;0.70;;;19.40;57.00;;;;;;5040714;28;20567;-63
2022/09/29 05:34:46;;;;;;;0.77;0.60;;;19.40;57.00;;;;;;5041782;28;20045;-63
2022/09/29 05:37:13;;;;;;;0.85;0.65;;;19.30;57.00;;;;;;5040788;28;20032;-63
2022/09/29 05:39:40;;;;;;;0.75;0.52;;;19.30;57.00;;;;;;5040010;28;20055;-63
2022/09/29 05:42:10;;;;;;;0.77;0.60;;;19.30;57.00;;;;;;5037851;28;20029;-63
2022/09/29 05:44:35;;;;;;;;;;;19.40;57.00;;;;;;5039095;28;20413;-63
2022/09/29 05:47:01;;;;;;;0.60;0.50;;;19.30;57.00;;;;;;5057825;28;19913;-64
2022/09/29 05:49:27;;;;;;;1.17;0.65;;;19.30;57.00;;;;;;5044144;28;20029;-64
2022/09/29 05:51:52;;;;;;;1.90;0.63;;;19.30;57.00;;;;;;5056622;28;20326;-64
2022/09/29 05:54:18;;;;;;;0.80;0.60;;;19.30;57.00;;;;;;5040373;28;20397;-64
2022/09/29 05:56:43;;;;;;;0.75;0.57;;;19.30;57.00;;;;;;5039491;28;20025;-64
2022/09/29 05:59:09;;;;;;;1.35;0.60;;;19.30;57.00;;;;;;5038060;28;20026;-64
2022/09/29 06:01:35;;;;;;;0.88;0.50;;;19.30;57.10;;;;;;5038868;28;20066;-64
2022/09/29 06:04:01;;;;;;;0.77;0.60;;;19.30;57.00;;;;;;5039540;28;20500;-64
2022/09/29 06:06:28;;;;;;;1.60;0.70;;;19.30;57.00;;;;;;5038109;28;20026;-64
2022/09/29 06:08:56;;;;;;;1.77;0.70;;;19.30;57.00;;;;;;5031515;28;20500;-64
2022/09/29 06:11:27;;;;;;;1.75;0.55;;;19.30;57.00;;;;;;5034464;28;20025;-64
2022/09/29 06:13:54;;;;;;;1.35;0.65;;;19.30;57.10;;;;;;5039309;28;20033;-63
2022/09/29 06:16:22;;;;;;;0.80;0.60;;;19.30;57.10;;;;;;5040157;28;20694;-63
2022/09/29 06:18:48;;;;;;;0.88;0.60;;;19.30;57.10;;;;;;5037020;28;20025;-63
2022/09/29 06:21:17;;;;;;;0.98;0.70;;;19.30;57.10;;;;;;5039653;28;20029;-63
2022/09/29 06:23:43;;;;;;;0.77;0.57;;;19.30;57.10;;;;;;5035882;28;20526;-63
2022/09/29 06:26:14;;;;;;;1.00;0.63;;;19.30;57.10;;;;;;5039952;28;20384;-63
2022/09/29 06:28:40;;;;;;;1.15;0.57;;;19.30;57.10;;;;;;5053603;28;20029;-63
2022/09/29 06:31:10;;;;;;;2.15;0.80;;;19.30;57.10;;;;;;5056925;28;20108;-63
2022/09/29 06:33:36;;;;;;;0.98;0.80;;;19.30;57.10;;;;;;5038337;28;20057;-63
2022/09/29 06:39:05;;;;;;;1.02;0.60;;;19.30;57.10;;;;;;5038888;28;20051;-63
2022/09/29 06:41:30;;;;;;;1.65;0.60;;;19.30;57.10;;;;;;5037266;28;20071;-63
2022/09/29 06:43:56;;;;;;;1.42;0.70;;;19.30;57.10;;;;;;5033884;28;20033;-63
2022/09/29 06:46:22;;;;;;;1.15;0.70;;;19.30;57.10;;;;;;5032453;28;20029;-64
2022/09/29 06:48:48;;;;;;;1.55;0.70;;;19.30;57.10;;;;;;5038196;28;20022;-63
2022/09/29 06:51:13;;;;;;;1.40;0.60;;;19.30;57.10;;;;;;5039882;28;20096;-63
2022/09/29 06:53:39;;;;;;;1.25;0.55;;;19.20;57.10;;;;;;5036595;28;20028;-63
2022/09/29 06:56:07;;;;;;;1.70;0.70;;;19.20;57.00;;;;;;5036292;28;20413;-63
2022/09/29 06:58:33;;;;;;;2.03;0.73;;;19.30;57.10;;;;;;5038348;28;20021;-63
2022/09/29 07:00:59;;;;;;;1.00;0.80;;;19.30;57.10;;;;;;5036561;28;20040;-63
2022/09/29 07:03:25;;;;;;;1.67;0.60;;;19.30;57.10;;;;;;5041143;28;20048;-63
2022/09/29 07:05:51;;;;;;;1.05;0.60;;;19.20;57.00;;;;;;5040384;28;20038;-63
2022/09/29 07:08:16;;;;;;;0.85;0.70;;;19.20;57.00;;;;;;5039457;28;20059;-63
2022/09/29 07:10:42;;;;;;;0.88;0.60;;;19.30;57.10;;;;;;5041556;28;20392;-64
2022/09/29 07:13:08;;;;;;;0.75;0.60;;;19.20;57.00;;;;;;5038296;28;20033;-63
2022/09/29 07:15:35;;;;;;;1.42;0.55;;;19.20;57.00;;;;;;5039359;28;20028;-64
2022/09/29 07:18:01;;;;;;;1.17;0.60;;;19.20;57.00;;;;;;5039267;28;20052;-63
2022/09/29 07:20:28;;;;;;;1.48;0.80;;;19.20;57.00;;;;;;5035921;28;20045;-63
2022/09/29 07:22:54;;;;;;;1.38;0.60;;;19.20;57.00;;;;;;5035687;28;20026;-64
2022/09/29 07:25:20;;;;;;;1.23;0.57;;;19.20;57.00;;;;;;5035772;28;20026;-64
2022/09/29 07:27:46;;;;;;;0.82;0.55;;;19.20;57.00;;;;;;5034498;28;20503;-64
2022/09/29 07:30:12;;;;;;;1.45;0.50;;;19.20;57.00;;;;;;5037567;28;20037;-64
2022/09/29 07:32:38;;;;;;;1.38;0.63;;;19.20;57.00;;;;;;5053977;28;20025;-63
2022/09/29 07:35:05;;;;;;;0.85;0.60;;;19.20;57.00;;;;;;5033097;28;20028;-63
2022/09/29 07:37:31;;;;;;;3.28;0.90;;;19.20;57.00;;;;;;5029420;28;20089;-64
2022/09/29 07:39:57;;;;;;;1.48;0.77;;;19.20;57.00;;;;;;5026314;28;20436;-64
2022/09/29 07:42:23;;;;;;;1.15;0.77;;;19.20;57.00;;;;;;5040705;28;20546;-63
2022/09/29 07:44:48;;;;;;;1.08;0.60;;;19.20;57.00;;;;;;5034361;28;20053;-64
2022/09/29 07:47:14;;;;;;;0.65;0.63;;;19.20;57.00;;;;;;5040352;28;20373;-64
2022/09/29 07:49:40;;;;;;;1.65;0.80;;;19.20;57.00;;;;;;5041351;28;20485;-63
2022/09/29 07:52:07;;;;;;;1.00;0.68;;;19.20;57.00;;;;;;5037630;28;20056;-63
2022/09/29 07:54:33;;;;;;;1.38;0.73;;;19.20;57.00;;;;;;5038546;28;20500;-63
2022/09/29 07:56:59;;;;;;;1.60;0.85;;;19.20;57.50;;;;;;5038155;28;20030;-63
2022/09/29 07:59:26;;;;;;;0.95;0.60;;;19.20;57.00;;;;;;5037509;28;20059;-64
2022/09/29 08:01:52;;;;;;;0.90;0.60;;;19.20;57.50;;;;;;5033162;28;20485;-64
2022/09/29 08:04:18;;;;;;;2.20;0.80;;;19.20;57.00;;;;;;5034500;28;20128;-63
2022/09/29 08:06:45;;;;;;;0.85;0.60;;;19.20;57.00;;;;;;5035400;28;20025;-63
2022/09/29 08:09:11;;;;;;;1.10;0.77;;;19.10;57.00;;;;;;5035935;28;20515;-63
2022/09/29 08:11:39;;;;;;;1.40;0.80;;;19.20;57.00;;;;;;5035305;28;20025;-64
2022/09/29 08:14:06;;;;;;;1.10;0.70;;;19.20;57.00;;;;;;5028236;28;20527;-63
2022/09/29 08:16:32;;;;;;;1.00;0.60;;;19.20;57.00;;;;;;5034264;28;20045;-64
2022/09/29 08:18:58;;;;;;;1.13;0.60;;;19.10;57.00;;;;;;5038168;28;20515;-64
2022/09/29 08:21:24;;;;;;;1.08;0.68;;;19.20;57.10;;;;;;5039172;28;20013;-63
2022/09/29 08:23:50;;;;;;;0.88;0.60;;;19.10;57.00;;;;;;5035144;28;20022;-63
2022/09/29 08:26:18;;;;;;;0.65;0.60;;;19.10;57.00;;;;;;5037227;28;20053;-63
2022/09/29 08:28:44;;;;;;;0.90;0.60;;;19.10;57.00;;;;;;5055775;28;20026;-64
2022/09/29 08:31:19;;;;;;;2.22;0.70;;;19.10;57.00;;;;;;5036999;28;20049;-63
2022/09/29 08:33:47;;;;;;;1.83;0.70;;;19.10;57.10;;;;;;5039521;28;20402;-64
2022/09/29 08:36:13;;;;;;;1.67;0.60;;;19.10;57.10;;;;;;5043619;28;20388;-64
2022/09/29 08:38:43;;;;;;;1.35;0.70;;;19.10;57.10;;;;;;5040908;28;20025;-64
2022/09/29 08:41:22;;;;;;;1.48;0.82;;;19.10;57.10;;;;;;5038987;28;20036;-64
2022/09/29 08:43:51;;;;;;;1.30;0.70;;;19.10;57.10;;;;;;5041212;28;20021;-63
2022/09/29 08:46:28;;;;;;;1.00;0.60;;;19.10;57.00;;;;;;5040131;28;20029;-64
2022/09/29 08:48:55;;;;;;;0.90;0.60;;;19.10;57.10;;;;;;5037212;28;20059;-64
2022/09/29 08:51:35;;;;;;;1.38;0.70;;;19.10;57.10;;;;;;5037474;28;20017;-64
2022/09/29 08:54:12;;;;;;;1.02;0.65;;;19.10;57.10;;;;;;5042343;28;20108;-64
2022/09/29 08:56:38;;;;;;;1.40;0.60;;;19.10;57.10;;;;;;5034814;28;20028;-63
2022/09/29 08:59:03;;;;;;;0.98;0.70;;;19.10;57.60;;;;;;5039421;28;20029;-64
2022/09/29 09:02:06;;;;;;;1.63;0.80;;;19.10;57.10;;;;;;5041693;28;20040;-64
2022/09/29 09:04:44;;;;;;;1.55;0.82;;;19.10;57.10;;;;;;5022162;28;20030;-64
2022/09/29 09:07:25;;;;;;;2.33;0.63;;;19.10;57.10;;;;;;5041336;28;20037;-64
2022/09/29 09:10:06;;;;;;;0.65;0.60;;;19.10;57.10;;;;;;5044573;28;20384;-63
2022/09/29 09:12:40;;;;;;;0.75;0.60;;;19.10;57.10;;;;;;5041898;28;20063;-64
2022/09/29 09:15:33;;;;;;;1.15;0.68;;;19.10;57.10;;;;;;5038773;28;20485;-63
2022/09/29 09:18:24;;;;;;;1.25;0.80;;;19.10;57.10;;;;;;5040734;28;20037;-63
2022/09/29 09:21:03;;;;;;;1.67;0.70;;;19.10;57.10;;;;;;5042757;28;20384;-64
2022/09/29 09:23:35;;;;;;;1.63;0.70;;;19.10;57.10;;;;;;5040228;28;20555;-63
2022/09/29 09:26:02;;;;;;;1.17;0.63;;;19.00;57.50;;;;;;5039475;28;20059;-63
2022/09/29 09:28:39;;;;;;;0.95;0.60;;;19.10;57.10;;;;;;5040773;28;20064;-64
2022/09/29 09:31:17;;;;;;;1.23;0.65;;;19.00;57.10;;;;;;5036454;28;20488;-64
2022/09/29 09:33:53;;;;;;;1.25;0.70;;;19.00;57.10;;;;;;5037624;28;20491;-64
2022/09/29 09:36:28;;;;;;;1.83;0.70;;;19.00;57.00;;;;;;5039730;28;20108;-63
2022/09/29 09:39:00;;;;;;;1.45;0.70;;;19.00;57.00;;;;;;5040198;28;20497;-64
2022/09/29 09:41:28;;;;;;;1.10;0.70;;;19.10;57.10;;;;;;5035783;28;20066;-64
2022/09/29 09:44:08;;;;;;;2.37;0.80;;;19.10;57.20;;;;;;5031543;28;20389;-63
2022/09/29 09:46:49;;;;;;;1.10;0.70;;;19.00;57.10;;;;;;5037465;28;20295;-64
2022/09/29 09:49:40;;;;;;;1.55;0.77;;;19.00;57.10;;;;;;5041745;28;20025;-64
2022/09/29 09:52:31;;;;;;;1.02;0.70;;;19.00;57.10;;;;;;5039327;28;20477;-64
2022/09/29 09:55:04;;;;;;;1.10;0.60;;;19.00;57.10;;;;;;5040037;28;20477;-64
2022/09/29 09:57:51;;;;;;;1.42;0.70;;;19.00;57.10;;;;;;5037260;28;20051;-64
2022/09/29 10:00:28;;;;;;;1.20;0.70;;;19.00;57.10;;;;;;5035524;28;20021;-63
2022/09/29 10:02:56;;;;;;;1.48;0.60;;;19.10;57.20;;;;;;5042788;28;20040;-64
2022/09/29 10:05:48;;;;;;;1.30;0.73;;;19.00;57.10;;;;;;5042571;28;20109;-63
2022/09/29 10:08:20;;;;;;;1.52;0.60;;;19.10;57.20;;;;;;5041840;28;20045;-64
2022/09/29 10:10:45;;;;;;;1.10;0.68;;;19.00;57.10;;;;;;5039705;28;20099;-63
2022/09/29 10:13:13;;;;;;;1.00;0.70;;;19.00;57.10;;;;;;5039901;28;20116;-63
2022/09/29 10:15:51;;;;;;;0.85;0.60;;;19.00;57.10;;;;;;5040291;28;20025;-64
2022/09/29 10:18:19;;;;;;;1.23;0.70;;;19.00;57.10;;;;;;5035587;28;20048;-64
2022/09/29 10:20:45;;;;;;;1.15;0.82;;;19.10;57.20;;;;;;5036950;28;20033;-64
2022/09/29 10:23:33;;;;;;;1.00;0.60;;;19.00;57.10;;;;;;5055096;28;20385;-64
2022/09/29 10:26:17;;;;;;;1.55;0.73;;;19.00;57.10;;;;;;5052523;28;20473;-64
2022/09/29 10:28:49;;;;;;;0.70;0.70;;;19.00;57.10;;;;;;5039813;28;20500;-64
2022/09/29 10:31:35;;;;;;;1.73;0.70;;;19.00;57.10;;;;;;5038792;28;20108;-64
2022/09/29 10:34:18;;;;;;;1.70;0.70;;;19.00;57.20;;;;;;5039761;28;20493;-64
2022/09/29 10:37:22;;;;;;;1.13;0.65;;;19.00;57.20;;;;;;5036250;28;20080;-64
2022/09/29 10:39:49;;;;;;;0.88;0.70;;;19.00;57.20;;;;;;5029893;28;20040;-64
2022/09/29 10:42:24;;;;;;;1.48;0.80;;;19.00;57.10;;;;;;5038422;28;20074;-64
2022/09/29 10:45:13;;;;;;;1.02;0.60;;;19.00;57.20;;;;;;5035969;28;20482;-64
2022/09/29 10:47:40;;;;;;;1.38;0.57;;;19.00;57.20;;;;;;5031968;28;20030;-63
2022/09/29 10:50:21;;;;;;;0.73;0.55;;;19.00;57.20;;;;;;5041915;28;20045;-64
2022/09/29 10:52:51;;;;;;;1.23;0.57;;;19.00;57.20;;;;;;5041922;28;20067;-63
2022/09/29 10:55:22;;;;;;;0.95;0.50;;;19.00;57.50;;;;;;5039927;28;20469;-64
2022/09/29 10:57:48;;;;;;;1.60;0.70;;;19.00;57.30;;;;;;5038768;28;20389;-64
2022/09/29 11:00:30;;;;;;;1.15;0.63;;;19.00;57.20;;;;;;5036662;28;20170;-64
2022/09/29 11:03:25;;;;;;;1.15;0.70;;;19.00;57.20;;;;;;5033978;28;20108;-64
2022/09/29 11:06:06;;;;;;;1.60;0.70;;;19.00;57.30;;;;;;5037200;28;20076;-64
2022/09/29 11:08:32;;;;;;;0.90;0.60;;;19.00;57.30;;;;;;5037932;28;20060;-64
2022/09/29 11:11:08;;;;;;;2.28;0.75;;;19.00;57.30;;;;;;5040530;28;20045;-64
2022/09/29 11:13:39;;;;;;;1.20;0.75;;;19.00;57.30;;;;;;5037107;28;20143;-64
2022/09/29 11:16:17;;;;;;;1.00;0.60;;;19.00;57.30;;;;;;5038517;28;20073;-64
2022/09/29 11:18:48;;;;;;;1.13;0.60;;;19.00;57.30;;;;;;5038602;28;20392;-63
2022/09/29 11:21:16;;;;;;;1.58;0.60;;;19.00;57.30;;;;;;5036680;28;20105;-63
2022/09/29 11:24:14;;;;;;;1.27;0.65;;;19.00;57.30;;;;;;5037190;28;20037;-63
2022/09/29 11:26:51;;;;;;;1.42;0.70;;;19.00;57.30;;;;;;5035376;28;20042;-64
2022/09/29 11:29:24;;;;;;;1.35;0.60;;;19.00;57.30;;;;;;5027843;28;20033;-63
2022/09/29 11:32:31;;;;;;;1.50;0.65;;;19.00;57.30;;;;;;5038828;28;20189;-64
2022/09/29 11:35:16;;;;;;;1.15;0.60;;;19.10;57.30;;;;;;5000487;28;20374;-64
2022/09/29 11:37:54;;;;;;;1.77;0.60;;;19.10;57.30;;;;;;5041011;28;20037;-64
2022/09/29 11:40:41;;;;;;;1.83;0.70;;;19.00;57.30;;;;;;5037722;28;20032;-64
2022/09/29 11:43:21;;;;;;;3.03;0.90;;;19.10;57.40;;;;;;5036053;28;20405;-64
2022/09/29 11:46:05;;;;;;;2.88;1.10;;;19.10;57.50;;;;;;5041229;28;20480;-64
2022/09/29 11:48:52;;;;;;;5.40;1.30;;;19.10;57.50;;;;;;5054393;28;20163;-63
2022/09/29 11:51:32;;;;;;;4.22;1.35;;;19.10;57.50;;;;;;5039341;28;20103;-64
2022/09/29 11:54:13;;;;;;;3.38;1.27;;;19.10;57.60;;;;;;5036037;28;20021;-64
2022/09/29 11:56:44;;;;;;;5.60;1.40;;;19.10;57.60;;;;;;5036195;28;20022;-63
2022/09/29 11:59:16;;;;;;;5.03;1.30;;;19.10;57.60;;;;;;5038680;28;20095;-64
2022/09/29 12:02:09;;;;;;;3.58;1.25;;;19.10;57.80;;;;;;5033854;28;20117;-63
2022/09/29 12:04:58;;;;;;;3.80;1.40;;;19.10;57.70;;;;;;5030735;28;20030;-63
2022/09/29 12:08:05;;;;;;;4.28;1.33;;;19.10;57.70;;;;;;5045854;28;20080;-64
2022/09/29 12:10:50;;;;;;;6.22;2.00;;;19.10;57.80;;;;;;5014629;28;20130;-63
2022/09/29 12:13:31;;;;;;;5.30;1.45;;;19.10;57.90;;;;;;5016197;28;20256;-64
2022/09/29 12:16:02;;;;;;;6.63;1.65;;;19.10;57.80;;;;;;5026963;28;20049;-63
2022/09/29 12:18:32;;;;;;;4.43;1.40;;;19.10;57.80;;;;;;5035099;28;20092;-63
2022/09/29 12:20:59;;;;;;;3.35;1.30;;;19.20;57.90;;;;;;5031012;28;20477;-63
2022/09/29 12:23:28;;;;;;;5.28;1.60;;;19.10;57.90;;;;;;5037840;28;20112;-63
2022/09/29 12:26:08;;;;;;;4.70;1.90;;;19.10;57.80;;;;;;5040859;28;20033;-64
2022/09/29 12:28:47;;;;;;;4.80;1.70;;;19.10;57.90;;;;;;5038881;28;20477;-64
2022/09/29 12:31:29;;;;;;;6.00;1.83;;;19.10;57.90;;;;;;5034810;28;20025;-64
2022/09/29 12:34:05;;;;;;;5.22;1.70;;;19.10;57.90;;;;;;5034852;28;20030;-64
2022/09/29 12:36:44;;;;;;;5.82;1.98;;;19.10;57.90;;;;;;5035344;28;20472;-64
2022/09/29 12:39:19;;;;;;;7.38;1.95;;;19.10;58.00;;;;;;5034193;28;20030;-64
2022/09/29 12:41:51;;;;;;;5.18;1.60;;;19.10;58.00;;;;;;5033023;28;20021;-62
2022/09/29 12:44:39;;;;;;;3.78;1.60;;;19.10;57.90;;;;;;5033241;28;20457;-62
2022/09/29 12:47:18;;;;;;;4.72;1.55;;;19.10;57.90;;;;;;5035872;28;20036;-62
2022/09/29 12:50:14;;;;;;;5.27;1.50;;;19.20;58.00;;;;;;5036493;28;20472;-62
2022/09/29 12:52:46;;;;;;;4.13;1.50;;;19.10;58.00;;;;;;5034762;28;20037;-62
2022/09/29 12:55:24;;;;;;;3.90;1.40;;;19.10;58.00;;;;;;5036357;28;20033;-62
2022/09/29 12:57:53;;;;;;;4.05;1.55;;;19.10;58.00;;;;;;5028603;28;20397;-62
2022/09/29 13:00:19;;;;;;;4.90;1.75;;;19.10;57.90;;;;;;5032093;28;20045;-62
2022/09/29 13:03:11;;;;;;;4.50;1.70;;;19.20;58.00;;;;;;5039550;28;20020;-62
2022/09/29 13:05:55;;;;;;;4.25;1.70;;;19.20;58.00;;;;;;5039625;28;20021;-62
2022/09/29 13:08:30;;;;;;;4.00;1.42;;;19.10;58.00;;;;;;5038477;28;20472;-63
2022/09/29 13:11:04;;;;;;;4.88;1.40;;;19.10;58.00;;;;;;5052195;28;20048;-62
2022/09/29 13:13:51;;;;;;;3.75;1.30;;;19.10;58.00;;;;;;5035550;28;20029;-62
2022/09/29 13:16:22;;;;;;;3.63;1.40;;;19.10;58.00;;;;;;5034684;28;20053;-62